sensor_id;sensor_type;location;lat;lon;timestamp;pressure;altitude;pressure_sealevel;temperature;humidity
22743;BME280;11538;48.884;8.696;2023-08-31T00:02:08;98200.59;;;14.99;100.00
22743;BME280;11538;48.884;8.696;2023-08-31T00:04:36;98205.81;;;14.92;100.00
22743;BME280;11538;48.884;8.696;2023-08-31T00:07:04;98196.72;;;14.88;100.00
22743;BME280;11538;48.884;8.696;2023-08-31T00:09:31;98200.03;;;14.81;100.00
22743;BME280;11538;48.884;8.696;2023-08-31T00:11:58;98210.03;;;14.77;100.00
22743;BME280;11538;48.884;8.696;2023-08-31T00:14:25;98211.06;;;14.72;100.00
22743;BME280;11538;48.884;8.696;2023-08-31T00:16:53;98217.69;;;14.71;100.00
22743;BME280;11538;48.884;8.696;2023-08-31T00:19:20;98222.44;;;14.74;100.00
22743;BME280;11538;48.884;8.696;2023-08-31T00:21:47;98220.97;;;14.77;100.00
22743;BME280;11538;48.884;8.696;2023-08-31T00:24:15;98217.91;;;14.79;100.00
22743;BME280;11538;48.884;8.696;2023-08-31T00:26:42;98228.81;;;14.79;100.00
22743;BME280;11538;48.884;8.696;2023-08-31T00:29:09;98228.44;;;14.68;100.00
22743;BME280;11538;48.884;8.696;2023-08-31T00:31:37;98228.66;;;14.62;100.00
22743;BME280;11538;48.884;8.696;2023-08-31T00:34:04;98232.53;;;14.61;100.00
22743;BME280;11538;48.884;8.696;2023-08-31T00:36:33;98219.69;;;14.62;100.00
22743;BME280;11538;48.884;8.696;2023-08-31T00:39:04;98223.56;;;14.61;100.00
22743;BME280;11538;48.884;8.696;2023-08-31T00:41:37;98228.19;;;14.60;100.00
22743;BME280;11538;48.884;8.696;2023-08-31T00:44:05;98221.59;;;14.61;100.00
22743;BME280;11538;48.884;8.696;2023-08-31T00:46:32;98207.19;;;14.61;100.00
22743;BME280;11538;48.884;8.696;2023-08-31T00:49:01;98208.41;;;14.51;100.00
22743;BME280;11538;48.884;8.696;2023-08-31T00:51:30;98205.78;;;14.55;100.00
22743;BME280;11538;48.884;8.696;2023-08-31T00:53:57;98208.19;;;14.56;100.00
22743;BME280;11538;48.884;8.696;2023-08-31T00:56:26;98212.97;;;14.59;100.00
22743;BME280;11538;48.884;8.696;2023-08-31T00:58:53;98209.22;;;14.64;100.00
22743;BME280;11538;48.884;8.696;2023-08-31T01:01:43;98207.28;;;14.65;100.00
22743;BME280;11538;48.884;8.696;2023-08-31T01:04:25;98218.19;;;14.52;100.00
22743;BME280;11538;48.884;8.696;2023-08-31T01:09:55;98220.09;;;14.52;100.00
22743;BME280;11538;48.884;8.696;2023-08-31T01:15:11;98225.56;;;14.52;100.00
22743;BME280;11538;48.884;8.696;2023-08-31T01:17:52;98228.44;;;14.55;100.00
22743;BME280;11538;48.884;8.696;2023-08-31T01:20:55;98229.69;;;14.58;100.00
22743;BME280;11538;48.884;8.696;2023-08-31T01:23:30;98235.25;;;14.61;100.00
22743;BME280;11538;48.884;8.696;2023-08-31T01:26:01;98239.13;;;14.60;100.00
22743;BME280;11538;48.884;8.696;2023-08-31T01:28:29;98242.22;;;14.59;100.00
22743;BME280;11538;48.884;8.696;2023-08-31T01:30:55;98245.47;;;14.52;100.00
22743;BME280;11538;48.884;8.696;2023-08-31T01:33:22;98244.34;;;14.53;100.00
22743;BME280;11538;48.884;8.696;2023-08-31T01:35:54;98249.56;;;14.46;100.00
22743;BME280;11538;48.884;8.696;2023-08-31T01:38:28;98249.44;;;14.42;100.00
22743;BME280;11538;48.884;8.696;2023-08-31T01:41:04;98251.47;;;14.45;100.00
22743;BME280;11538;48.884;8.696;2023-08-31T01:43:32;98252.41;;;14.50;100.00
22743;BME280;11538;48.884;8.696;2023-08-31T01:46:01;98247.41;;;14.52;100.00
22743;BME280;11538;48.884;8.696;2023-08-31T01:48:38;98252.53;;;14.53;100.00
22743;BME280;11538;48.884;8.696;2023-08-31T01:51:09;98259.44;;;14.51;100.00
22743;BME280;11538;48.884;8.696;2023-08-31T01:53:36;98258.91;;;14.57;100.00
22743;BME280;11538;48.884;8.696;2023-08-31T01:56:04;98252.75;;;14.60;100.00
22743;BME280;11538;48.884;8.696;2023-08-31T01:58:31;98267.09;;;14.57;100.00
22743;BME280;11538;48.884;8.696;2023-08-31T02:00:58;98257.19;;;14.53;100.00
22743;BME280;11538;48.884;8.696;2023-08-31T02:03:27;98254.34;;;14.49;100.00
22743;BME280;11538;48.884;8.696;2023-08-31T02:05:54;98261.03;;;14.52;100.00
22743;BME280;11538;48.884;8.696;2023-08-31T02:08:21;98265.50;;;14.56;100.00
22743;BME280;11538;48.884;8.696;2023-08-31T02:10:48;98263.34;;;14.62;100.00
22743;BME280;11538;48.884;8.696;2023-08-31T02:13:15;98265.72;;;14.63;100.00
22743;BME280;11538;48.884;8.696;2023-08-31T02:15:43;98261.50;;;14.54;100.00
22743;BME280;11538;48.884;8.696;2023-08-31T02:18:10;98258.44;;;14.43;100.00
22743;BME280;11538;48.884;8.696;2023-08-31T02:20:37;98261.38;;;14.38;100.00
22743;BME280;11538;48.884;8.696;2023-08-31T02:23:04;98263.19;;;14.33;100.00
22743;BME280;11538;48.884;8.696;2023-08-31T02:25:31;98263.97;;;14.34;100.00
22743;BME280;11538;48.884;8.696;2023-08-31T02:27:59;98259.09;;;14.40;100.00
22743;BME280;11538;48.884;8.696;2023-08-31T02:30:26;98266.47;;;14.39;100.00
22743;BME280;11538;48.884;8.696;2023-08-31T02:32:53;98266.94;;;14.41;100.00
22743;BME280;11538;48.884;8.696;2023-08-31T02:35:20;98264.22;;;14.41;100.00
22743;BME280;11538;48.884;8.696;2023-08-31T02:37:47;98266.47;;;14.39;100.00
22743;BME280;11538;48.884;8.696;2023-08-31T02:40:15;98272.16;;;14.34;100.00
22743;BME280;11538;48.884;8.696;2023-08-31T02:42:42;98275.22;;;14.32;100.00
22743;BME280;11538;48.884;8.696;2023-08-31T02:45:09;98274.34;;;14.41;100.00
22743;BME280;11538;48.884;8.696;2023-08-31T02:47:37;98271.25;;;14.42;100.00
22743;BME280;11538;48.884;8.696;2023-08-31T02:50:05;98278.53;;;14.38;100.00
22743;BME280;11538;48.884;8.696;2023-08-31T02:52:32;98280.47;;;14.38;100.00
22743;BME280;11538;48.884;8.696;2023-08-31T02:54:59;98281.03;;;14.43;100.00
22743;BME280;11538;48.884;8.696;2023-08-31T02:57:26;98284.34;;;14.49;100.00
22743;BME280;11538;48.884;8.696;2023-08-31T02:59:53;98284.00;;;14.51;100.00
22743;BME280;11538;48.884;8.696;2023-08-31T03:02:20;98281.28;;;14.51;100.00
22743;BME280;11538;48.884;8.696;2023-08-31T03:04:49;98281.75;;;14.53;100.00
22743;BME280;11538;48.884;8.696;2023-08-31T03:07:16;98282.66;;;14.57;100.00
22743;BME280;11538;48.884;8.696;2023-08-31T03:09:43;98271.25;;;14.42;100.00
22743;BME280;11538;48.884;8.696;2023-08-31T03:12:14;98278.19;;;14.40;100.00
22743;BME280;11538;48.884;8.696;2023-08-31T03:14:42;98274.09;;;14.33;100.00
22743;BME280;11538;48.884;8.696;2023-08-31T03:17:09;98275.69;;;14.35;100.00
22743;BME280;11538;48.884;8.696;2023-08-31T03:19:36;98283.19;;;14.38;100.00
22743;BME280;11538;48.884;8.696;2023-08-31T03:22:03;98289.56;;;14.42;100.00
22743;BME280;11538;48.884;8.696;2023-08-31T03:24:32;98297.41;;;14.43;100.00
22743;BME280;11538;48.884;8.696;2023-08-31T03:26:59;98290.34;;;14.42;100.00
22743;BME280;11538;48.884;8.696;2023-08-31T03:29:26;98298.09;;;14.40;100.00
22743;BME280;11538;48.884;8.696;2023-08-31T03:31:55;98303.09;;;14.38;100.00
22743;BME280;11538;48.884;8.696;2023-08-31T03:34:22;98307.09;;;14.41;100.00
22743;BME280;11538;48.884;8.696;2023-08-31T03:36:49;98303.88;;;14.39;100.00
22743;BME280;11538;48.884;8.696;2023-08-31T03:39:17;98312.53;;;14.41;100.00
22743;BME280;11538;48.884;8.696;2023-08-31T03:41:44;98311.25;;;14.38;100.00
22743;BME280;11538;48.884;8.696;2023-08-31T03:44:10;98315.34;;;14.32;100.00
22743;BME280;11538;48.884;8.696;2023-08-31T03:46:37;98308.88;;;14.37;100.00
22743;BME280;11538;48.884;8.696;2023-08-31T03:49:04;98321.03;;;14.39;100.00
22743;BME280;11538;48.884;8.696;2023-08-31T03:51:31;98308.44;;;14.35;100.00
22743;BME280;11538;48.884;8.696;2023-08-31T03:53:58;98319.59;;;14.42;100.00
22743;BME280;11538;48.884;8.696;2023-08-31T03:56:25;98323.97;;;14.34;100.00
22743;BME280;11538;48.884;8.696;2023-08-31T03:58:53;98323.53;;;14.32;100.00
22743;BME280;11538;48.884;8.696;2023-08-31T04:01:20;98328.78;;;14.37;100.00
22743;BME280;11538;48.884;8.696;2023-08-31T04:03:47;98325.72;;;14.39;100.00
22743;BME280;11538;48.884;8.696;2023-08-31T04:06:14;98325.00;;;14.29;100.00
22743;BME280;11538;48.884;8.696;2023-08-31T04:08:41;98327.59;;;14.26;100.00
22743;BME280;11538;48.884;8.696;2023-08-31T04:11:08;98326.94;;;14.29;100.00
22743;BME280;11538;48.884;8.696;2023-08-31T04:13:35;98324.66;;;14.31;100.00
22743;BME280;11538;48.884;8.696;2023-08-31T04:16:02;98326.47;;;14.27;100.00
22743;BME280;11538;48.884;8.696;2023-08-31T04:18:29;98322.34;;;14.21;100.00
22743;BME280;11538;48.884;8.696;2023-08-31T04:20:56;98326.88;;;14.16;100.00
22743;BME280;11538;48.884;8.696;2023-08-31T04:23:25;98332.22;;;14.13;100.00
22743;BME280;11538;48.884;8.696;2023-08-31T04:25:52;98329.28;;;14.18;100.00
22743;BME280;11538;48.884;8.696;2023-08-31T04:28:20;98335.31;;;14.24;100.00
22743;BME280;11538;48.884;8.696;2023-08-31T04:30:47;98340.69;;;14.32;100.00
22743;BME280;11538;48.884;8.696;2023-08-31T04:33:14;98339.44;;;14.30;100.00
22743;BME280;11538;48.884;8.696;2023-08-31T04:35:42;98337.06;;;14.28;100.00
22743;BME280;11538;48.884;8.696;2023-08-31T04:38:09;98351.94;;;14.31;100.00
22743;BME280;11538;48.884;8.696;2023-08-31T04:40:36;98352.75;;;14.31;100.00
22743;BME280;11538;48.884;8.696;2023-08-31T04:43:05;98351.63;;;14.32;100.00
22743;BME280;11538;48.884;8.696;2023-08-31T04:45:32;98354.81;;;14.35;100.00
22743;BME280;11538;48.884;8.696;2023-08-31T04:47:59;98345.34;;;14.32;100.00
22743;BME280;11538;48.884;8.696;2023-08-31T04:50:26;98347.28;;;14.31;100.00
22743;BME280;11538;48.884;8.696;2023-08-31T04:52:53;98341.69;;;14.28;100.00
22743;BME280;11538;48.884;8.696;2023-08-31T04:55:21;98340.66;;;14.20;100.00
22743;BME280;11538;48.884;8.696;2023-08-31T04:57:48;98338.91;;;14.15;100.00
22743;BME280;11538;48.884;8.696;2023-08-31T05:00:16;98346.78;;;14.17;100.00
22743;BME280;11538;48.884;8.696;2023-08-31T05:02:43;98343.59;;;14.15;100.00
22743;BME280;11538;48.884;8.696;2023-08-31T05:05:10;98342.09;;;14.17;100.00
22743;BME280;11538;48.884;8.696;2023-08-31T05:07:37;98346.44;;;14.18;100.00
22743;BME280;11538;48.884;8.696;2023-08-31T05:10:06;98353.03;;;14.17;100.00
22743;BME280;11538;48.884;8.696;2023-08-31T05:12:33;98361.34;;;14.21;100.00
22743;BME280;11538;48.884;8.696;2023-08-31T05:15:00;98368.19;;;14.27;100.00
22743;BME280;11538;48.884;8.696;2023-08-31T05:17:27;98375.25;;;14.28;100.00
22743;BME280;11538;48.884;8.696;2023-08-31T05:19:54;98375.91;;;14.25;100.00
22743;BME280;11538;48.884;8.696;2023-08-31T05:22:21;98379.78;;;14.24;100.00
22743;BME280;11538;48.884;8.696;2023-08-31T05:24:48;98371.91;;;14.23;100.00
22743;BME280;11538;48.884;8.696;2023-08-31T05:27:15;98382.63;;;14.28;100.00
22743;BME280;11538;48.884;8.696;2023-08-31T05:29:42;98385.69;;;14.26;100.00
22743;BME280;11538;48.884;8.696;2023-08-31T05:32:09;98390.81;;;14.28;100.00
22743;BME280;11538;48.884;8.696;2023-08-31T05:34:36;98386.28;;;14.32;100.00
22743;BME280;11538;48.884;8.696;2023-08-31T05:37:06;98396.88;;;14.33;100.00
22743;BME280;11538;48.884;8.696;2023-08-31T05:39:34;98397.44;;;14.39;100.00
22743;BME280;11538;48.884;8.696;2023-08-31T05:42:01;98396.91;;;14.46;100.00
22743;BME280;11538;48.884;8.696;2023-08-31T05:44:29;98394.75;;;14.52;100.00
22743;BME280;11538;48.884;8.696;2023-08-31T05:46:56;98400.69;;;14.54;100.00
22743;BME280;11538;48.884;8.696;2023-08-31T05:49:23;98399.38;;;14.60;100.00
22743;BME280;11538;48.884;8.696;2023-08-31T05:51:50;98401.53;;;14.67;100.00
22743;BME280;11538;48.884;8.696;2023-08-31T05:54:17;98406.66;;;14.68;100.00
22743;BME280;11538;48.884;8.696;2023-08-31T05:56:44;98399.88;;;14.74;100.00
22743;BME280;11538;48.884;8.696;2023-08-31T05:59:11;98402.66;;;14.87;100.00
22743;BME280;11538;48.884;8.696;2023-08-31T06:01:38;98400.94;;;14.95;100.00
22743;BME280;11538;48.884;8.696;2023-08-31T06:04:05;98407.22;;;14.95;100.00
22743;BME280;11538;48.884;8.696;2023-08-31T06:06:32;98410.97;;;15.03;100.00
22743;BME280;11538;48.884;8.696;2023-08-31T06:09:00;98407.47;;;15.15;100.00
22743;BME280;11538;48.884;8.696;2023-08-31T06:11:27;98407.84;;;15.26;100.00
22743;BME280;11538;48.884;8.696;2023-08-31T06:13:54;98398.97;;;15.29;100.00
22743;BME280;11538;48.884;8.696;2023-08-31T06:16:21;98401.56;;;15.25;100.00
22743;BME280;11538;48.884;8.696;2023-08-31T06:18:48;98395.41;;;15.16;100.00
22743;BME280;11538;48.884;8.696;2023-08-31T06:21:15;98398.47;;;15.14;100.00
22743;BME280;11538;48.884;8.696;2023-08-31T06:23:42;98411.13;;;15.19;100.00
22743;BME280;11538;48.884;8.696;2023-08-31T06:26:09;98405.66;;;15.19;100.00
22743;BME280;11538;48.884;8.696;2023-08-31T06:28:36;98419.88;;;15.12;100.00
22743;BME280;11538;48.884;8.696;2023-08-31T06:31:02;98422.50;;;15.09;100.00
22743;BME280;11538;48.884;8.696;2023-08-31T06:33:31;98428.63;;;15.05;100.00
22743;BME280;11538;48.884;8.696;2023-08-31T06:35:58;98429.41;;;15.06;100.00
22743;BME280;11538;48.884;8.696;2023-08-31T06:38:25;98435.78;;;15.10;100.00
22743;BME280;11538;48.884;8.696;2023-08-31T06:40:52;98427.28;;;15.12;100.00
22743;BME280;11538;48.884;8.696;2023-08-31T06:43:25;98430.25;;;15.19;100.00
22743;BME280;11538;48.884;8.696;2023-08-31T06:45:55;98421.50;;;15.26;100.00
22743;BME280;11538;48.884;8.696;2023-08-31T06:48:27;98415.81;;;15.31;100.00
22743;BME280;11538;48.884;8.696;2023-08-31T06:50:55;98426.84;;;15.34;100.00
22743;BME280;11538;48.884;8.696;2023-08-31T06:53:23;98428.69;;;15.43;100.00
22743;BME280;11538;48.884;8.696;2023-08-31T06:55:49;98435.28;;;15.54;100.00
22743;BME280;11538;48.884;8.696;2023-08-31T06:58:16;98436.19;;;15.58;100.00
22743;BME280;11538;48.884;8.696;2023-08-31T07:00:43;98438.16;;;15.58;100.00
22743;BME280;11538;48.884;8.696;2023-08-31T07:03:10;98441.34;;;15.60;100.00
22743;BME280;11538;48.884;8.696;2023-08-31T07:05:42;98445.66;;;15.61;100.00
22743;BME280;11538;48.884;8.696;2023-08-31T07:08:10;98450.78;;;15.62;100.00
22743;BME280;11538;48.884;8.696;2023-08-31T07:10:38;98447.03;;;15.67;100.00
22743;BME280;11538;48.884;8.696;2023-08-31T07:13:05;98457.06;;;15.75;100.00
22743;BME280;11538;48.884;8.696;2023-08-31T07:15:33;98464.34;;;15.84;100.00
22743;BME280;11538;48.884;8.696;2023-08-31T07:18:00;98470.63;;;15.97;100.00
22743;BME280;11538;48.884;8.696;2023-08-31T07:20:27;98472.19;;;16.22;100.00
22743;BME280;11538;48.884;8.696;2023-08-31T07:22:54;98471.81;;;16.36;100.00
22743;BME280;11538;48.884;8.696;2023-08-31T07:25:21;98468.72;;;16.38;100.00
22743;BME280;11538;48.884;8.696;2023-08-31T07:27:48;98479.41;;;16.56;100.00
22743;BME280;11538;48.884;8.696;2023-08-31T07:30:15;98485.97;;;16.67;100.00
22743;BME280;11538;48.884;8.696;2023-08-31T07:32:42;98491.81;;;16.65;100.00
22743;BME280;11538;48.884;8.696;2023-08-31T07:35:09;98483.47;;;16.62;100.00
22743;BME280;11538;48.884;8.696;2023-08-31T07:37:36;98493.03;;;16.68;100.00
22743;BME280;11538;48.884;8.696;2023-08-31T07:40:05;98488.47;;;16.72;100.00
22743;BME280;11538;48.884;8.696;2023-08-31T07:42:36;98495.59;;;16.89;99.31
22743;BME280;11538;48.884;8.696;2023-08-31T07:45:04;98495.78;;;16.96;98.20
22743;BME280;11538;48.884;8.696;2023-08-31T07:47:32;98494.31;;;16.99;97.04
22743;BME280;11538;48.884;8.696;2023-08-31T07:50:01;98493.16;;;17.00;96.26
22743;BME280;11538;48.884;8.696;2023-08-31T07:52:29;98491.06;;;17.09;96.02
22743;BME280;11538;48.884;8.696;2023-08-31T07:54:56;98492.78;;;17.14;96.05
22743;BME280;11538;48.884;8.696;2023-08-31T07:57:23;98499.91;;;17.19;95.51
22743;BME280;11538;48.884;8.696;2023-08-31T07:59:51;98507.47;;;17.38;94.94
22743;BME280;11538;48.884;8.696;2023-08-31T08:02:18;98519.50;;;17.49;94.01
22743;BME280;11538;48.884;8.696;2023-08-31T08:04:46;98511.63;;;17.64;92.28
22743;BME280;11538;48.884;8.696;2023-08-31T08:07:13;98518.00;;;17.68;90.84
22743;BME280;11538;48.884;8.696;2023-08-31T08:09:40;98511.72;;;17.83;90.88
22743;BME280;11538;48.884;8.696;2023-08-31T08:12:07;98512.19;;;18.02;89.86
22743;BME280;11538;48.884;8.696;2023-08-31T08:14:34;98509.78;;;18.16;88.88
22743;BME280;11538;48.884;8.696;2023-08-31T08:17:01;98504.09;;;18.25;88.53
22743;BME280;11538;48.884;8.696;2023-08-31T08:19:28;98511.91;;;18.23;87.54
22743;BME280;11538;48.884;8.696;2023-08-31T08:21:55;98510.25;;;18.38;87.42
22743;BME280;11538;48.884;8.696;2023-08-31T08:24:22;98515.13;;;18.64;87.19
22743;BME280;11538;48.884;8.696;2023-08-31T08:26:49;98519.31;;;18.78;85.09
22743;BME280;11538;48.884;8.696;2023-08-31T08:29:16;98513.63;;;19.06;83.89
22743;BME280;11538;48.884;8.696;2023-08-31T08:31:43;98515.31;;;19.34;82.95
22743;BME280;11538;48.884;8.696;2023-08-31T08:34:10;98513.69;;;19.53;80.56
22743;BME280;11538;48.884;8.696;2023-08-31T08:36:37;98522.16;;;19.67;78.64
22743;BME280;11538;48.884;8.696;2023-08-31T08:39:04;98521.09;;;19.72;76.04
22743;BME280;11538;48.884;8.696;2023-08-31T08:41:33;98523.94;;;19.79;79.36
22743;BME280;11538;48.884;8.696;2023-08-31T08:44:03;98526.66;;;19.52;76.36
22743;BME280;11538;48.884;8.696;2023-08-31T08:46:32;98526.63;;;19.76;76.24
22743;BME280;11538;48.884;8.696;2023-08-31T08:49:00;98532.56;;;20.01;72.22
22743;BME280;11538;48.884;8.696;2023-08-31T08:51:30;98526.44;;;20.11;71.55
22743;BME280;11538;48.884;8.696;2023-08-31T08:53:59;98533.47;;;20.36;69.65
22743;BME280;11538;48.884;8.696;2023-08-31T08:56:27;98540.25;;;20.42;67.30
22743;BME280;11538;48.884;8.696;2023-08-31T08:58:54;98535.06;;;20.37;68.58
22743;BME280;11538;48.884;8.696;2023-08-31T09:01:22;98540.50;;;20.33;66.55
22743;BME280;11538;48.884;8.696;2023-08-31T09:03:51;98530.28;;;20.60;67.40
22743;BME280;11538;48.884;8.696;2023-08-31T09:06:18;98536.59;;;20.61;66.28
22743;BME280;11538;48.884;8.696;2023-08-31T09:08:54;98536.53;;;20.57;65.64
22743;BME280;11538;48.884;8.696;2023-08-31T09:11:24;98540.06;;;20.85;67.29
22743;BME280;11538;48.884;8.696;2023-08-31T09:13:52;98540.81;;;20.82;63.44
22743;BME280;11538;48.884;8.696;2023-08-31T09:16:29;98544.53;;;20.97;61.38
22743;BME280;11538;48.884;8.696;2023-08-31T09:18:57;98546.09;;;20.94;61.56
22743;BME280;11538;48.884;8.696;2023-08-31T09:21:37;98556.94;;;20.80;62.13
22743;BME280;11538;48.884;8.696;2023-08-31T09:24:07;98554.03;;;21.03;66.79
22743;BME280;11538;48.884;8.696;2023-08-31T09:26:54;98551.50;;;21.21;63.68
22743;BME280;11538;48.884;8.696;2023-08-31T09:29:21;98559.72;;;21.17;60.60
22743;BME280;11538;48.884;8.696;2023-08-31T09:31:49;98564.88;;;21.19;60.55
22743;BME280;11538;48.884;8.696;2023-08-31T09:34:17;98561.28;;;21.15;60.58
22743;BME280;11538;48.884;8.696;2023-08-31T09:36:45;98563.03;;;21.30;61.34
22743;BME280;11538;48.884;8.696;2023-08-31T09:39:14;98564.53;;;21.62;64.49
22743;BME280;11538;48.884;8.696;2023-08-31T09:41:54;98565.47;;;21.73;60.26
22743;BME280;11538;48.884;8.696;2023-08-31T09:44:22;98567.34;;;21.66;59.14
22743;BME280;11538;48.884;8.696;2023-08-31T09:46:49;98556.22;;;21.58;59.47
22743;BME280;11538;48.884;8.696;2023-08-31T09:49:18;98562.22;;;21.64;58.88
22743;BME280;11538;48.884;8.696;2023-08-31T09:51:49;98553.50;;;21.62;57.81
22743;BME280;11538;48.884;8.696;2023-08-31T09:54:19;98556.69;;;21.64;56.33
22743;BME280;11538;48.884;8.696;2023-08-31T09:56:48;98564.22;;;21.67;54.21
22743;BME280;11538;48.884;8.696;2023-08-31T09:59:16;98561.47;;;21.67;54.96
22743;BME280;11538;48.884;8.696;2023-08-31T10:01:47;98565.34;;;22.04;54.71
22743;BME280;11538;48.884;8.696;2023-08-31T10:04:15;98558.84;;;21.85;54.76
22743;BME280;11538;48.884;8.696;2023-08-31T10:06:43;98560.53;;;21.56;55.15
22743;BME280;11538;48.884;8.696;2023-08-31T10:09:10;98562.94;;;21.61;56.03
22743;BME280;11538;48.884;8.696;2023-08-31T10:11:38;98565.63;;;21.91;56.81
22743;BME280;11538;48.884;8.696;2023-08-31T10:14:07;98566.22;;;21.70;55.98
22743;BME280;11538;48.884;8.696;2023-08-31T10:16:37;98575.00;;;21.83;53.38
22743;BME280;11538;48.884;8.696;2023-08-31T10:19:08;98572.22;;;21.83;53.14
22743;BME280;11538;48.884;8.696;2023-08-31T10:21:35;98560.28;;;22.17;52.75
22743;BME280;11538;48.884;8.696;2023-08-31T10:24:06;98562.03;;;22.43;51.61
22743;BME280;11538;48.884;8.696;2023-08-31T10:26:33;98566.34;;;22.37;52.33
22743;BME280;11538;48.884;8.696;2023-08-31T10:29:00;98563.69;;;22.52;53.74
22743;BME280;11538;48.884;8.696;2023-08-31T10:31:34;98567.13;;;22.34;50.54
22743;BME280;11538;48.884;8.696;2023-08-31T10:34:04;98568.34;;;22.40;50.05
22743;BME280;11538;48.884;8.696;2023-08-31T10:36:45;98557.56;;;22.91;49.95
22743;BME280;11538;48.884;8.696;2023-08-31T10:39:18;98553.78;;;23.32;47.87
22743;BME280;11538;48.884;8.696;2023-08-31T10:41:54;98554.97;;;23.38;47.71
22743;BME280;11538;48.884;8.696;2023-08-31T10:44:27;98548.53;;;22.98;47.86
22743;BME280;11538;48.884;8.696;2023-08-31T10:47:04;98566.22;;;22.82;48.31
22743;BME280;11538;48.884;8.696;2023-08-31T10:49:32;98568.25;;;22.29;49.24
22743;BME280;11538;48.884;8.696;2023-08-31T10:52:18;98562.00;;;21.84;50.26
22743;BME280;11538;48.884;8.696;2023-08-31T10:55:05;98553.31;;;21.82;51.98
22743;BME280;11538;48.884;8.696;2023-08-31T10:57:35;98555.88;;;22.09;51.06
22743;BME280;11538;48.884;8.696;2023-08-31T11:00:03;98550.09;;;22.28;50.49
22743;BME280;11538;48.884;8.696;2023-08-31T11:02:46;98548.28;;;22.51;49.34
22743;BME280;11538;48.884;8.696;2023-08-31T11:05:16;98538.63;;;22.89;49.30
22743;BME280;11538;48.884;8.696;2023-08-31T11:07:49;98545.66;;;22.76;47.06
22743;BME280;11538;48.884;8.696;2023-08-31T11:10:20;98537.84;;;23.00;47.39
22743;BME280;11538;48.884;8.696;2023-08-31T11:12:52;98544.13;;;22.82;50.55
22743;BME280;11538;48.884;8.696;2023-08-31T11:15:22;98537.22;;;23.50;48.18
22743;BME280;11538;48.884;8.696;2023-08-31T11:17:51;98537.59;;;23.56;45.81
22743;BME280;11538;48.884;8.696;2023-08-31T11:20:21;98539.56;;;23.33;46.51
22743;BME280;11538;48.884;8.696;2023-08-31T11:22:50;98535.59;;;23.24;45.86
22743;BME280;11538;48.884;8.696;2023-08-31T11:25:20;98534.78;;;23.27;46.89
22743;BME280;11538;48.884;8.696;2023-08-31T11:27:58;98547.09;;;23.44;46.04
22743;BME280;11538;48.884;8.696;2023-08-31T11:30:28;98554.81;;;22.91;47.28
22743;BME280;11538;48.884;8.696;2023-08-31T11:35:35;98549.31;;;23.02;47.77
22743;BME280;11538;48.884;8.696;2023-08-31T11:38:04;98540.72;;;23.29;45.60
22743;BME280;11538;48.884;8.696;2023-08-31T11:40:31;98539.38;;;22.90;46.54
22743;BME280;11538;48.884;8.696;2023-08-31T11:42:59;98535.44;;;22.87;46.42
22743;BME280;11538;48.884;8.696;2023-08-31T11:45:31;98544.50;;;22.77;47.13
22743;BME280;11538;48.884;8.696;2023-08-31T11:47:58;98547.69;;;22.86;46.54
22743;BME280;11538;48.884;8.696;2023-08-31T11:50:27;98549.13;;;23.87;45.76
22743;BME280;11538;48.884;8.696;2023-08-31T11:52:55;98554.66;;;24.30;43.85
22743;BME280;11538;48.884;8.696;2023-08-31T11:55:22;98542.56;;;25.02;41.93
22743;BME280;11538;48.884;8.696;2023-08-31T11:57:54;98531.94;;;25.61;40.85
22743;BME280;11538;48.884;8.696;2023-08-31T12:00:23;98529.16;;;24.86;42.21
22743;BME280;11538;48.884;8.696;2023-08-31T12:02:58;98538.84;;;23.98;44.52
22743;BME280;11538;48.884;8.696;2023-08-31T12:05:27;98526.16;;;23.68;45.31
22743;BME280;11538;48.884;8.696;2023-08-31T12:07:55;98526.41;;;23.08;46.68
22743;BME280;11538;48.884;8.696;2023-08-31T12:10:26;98540.88;;;22.66;47.42
22743;BME280;11538;48.884;8.696;2023-08-31T12:13:07;98534.66;;;22.20;48.88
22743;BME280;11538;48.884;8.696;2023-08-31T12:15:34;98533.16;;;21.77;50.13
22743;BME280;11538;48.884;8.696;2023-08-31T12:18:13;98537.38;;;21.64;50.65
22743;BME280;11538;48.884;8.696;2023-08-31T12:20:50;98531.16;;;21.37;51.60
22743;BME280;11538;48.884;8.696;2023-08-31T12:23:18;98538.25;;;21.34;51.21
22743;BME280;11538;48.884;8.696;2023-08-31T12:25:53;98540.81;;;22.55;48.46
22743;BME280;11538;48.884;8.696;2023-08-31T12:28:23;98531.31;;;23.95;45.80
22743;BME280;11538;48.884;8.696;2023-08-31T12:30:53;98536.00;;;23.40;45.97
22743;BME280;11538;48.884;8.696;2023-08-31T12:33:20;98533.19;;;23.22;46.68
22743;BME280;11538;48.884;8.696;2023-08-31T12:35:49;98532.50;;;24.16;45.37
22743;BME280;11538;48.884;8.696;2023-08-31T12:38:16;98534.28;;;24.95;43.31
22743;BME280;11538;48.884;8.696;2023-08-31T12:40:43;98539.97;;;25.44;41.31
22743;BME280;11538;48.884;8.696;2023-08-31T12:43:10;98521.72;;;25.43;41.45
22743;BME280;11538;48.884;8.696;2023-08-31T12:45:37;98535.06;;;24.99;42.63
22743;BME280;11538;48.884;8.696;2023-08-31T12:48:05;98533.56;;;24.65;43.26
22743;BME280;11538;48.884;8.696;2023-08-31T12:50:32;98522.72;;;25.07;42.07
22743;BME280;11538;48.884;8.696;2023-08-31T12:52:59;98529.50;;;24.99;42.93
22743;BME280;11538;48.884;8.696;2023-08-31T12:55:26;98516.66;;;23.84;44.06
22743;BME280;11538;48.884;8.696;2023-08-31T12:57:53;98523.25;;;23.03;45.46
22743;BME280;11538;48.884;8.696;2023-08-31T13:00:20;98536.84;;;22.48;46.94
22743;BME280;11538;48.884;8.696;2023-08-31T13:02:47;98527.41;;;21.97;48.13
22743;BME280;11538;48.884;8.696;2023-08-31T13:05:15;98520.59;;;23.39;45.62
22743;BME280;11538;48.884;8.696;2023-08-31T13:07:41;98518.63;;;23.65;44.93
22743;BME280;11538;48.884;8.696;2023-08-31T13:10:09;98515.75;;;23.11;45.05
22743;BME280;11538;48.884;8.696;2023-08-31T13:12:36;98528.94;;;22.51;46.67